| time (UTC) | temp C | wind direction | speed KPH | gust KPH | rain 1hr cm | rain 24hr cm | rain mn cm | humidity % | barometer mb |
| 20260510082557 | 18 | 0 | 0.0 | 0.0 | 0.00 | 1.30 | 0.00 | 96 | 1011.0 |
| 20260510081657 | 18 | 0 | 0.0 | 0.0 | 0.00 | 1.30 | 0.00 | 96 | 1010.9 |
| 20260510080757 | 18 | 0 | 0.0 | 0.0 | 0.00 | 1.30 | 0.00 | 96 | 1010.9 |
| 20260510075857 | 18 | 0 | 0.0 | 0.0 | 0.00 | 1.30 | 0.00 | 96 | 1011.0 |
| 20260510074957 | 19 | 0 | 0.0 | 0.0 | 0.00 | 1.30 | 0.00 | 96 | 1011.1 |
| 20260510074057 | 19 | 0 | 0.0 | 0.0 | 0.00 | 1.30 | 0.00 | 96 | 1011.0 |
| 20260510073157 | 19 | 0 | 0.0 | 0.0 | 0.00 | 1.30 | 0.00 | 96 | 1011.0 |
| 20260510071357 | 19 | 0 | 0.0 | 0.0 | 0.00 | 1.30 | 0.00 | 96 | 1010.9 |
| 20260510065557 | 19 | 269 | 0.0 | 1.6 | 0.00 | 1.30 | 0.00 | 96 | 1010.9 |
| 20260510064657 | 19 | 0 | 0.0 | 0.0 | 0.00 | 1.30 | 0.00 | 96 | 1011.1 |
| 20260510063757 | 19 | 0 | 0.0 | 0.0 | 0.00 | 1.30 | 0.00 | 96 | 1011.0 |
| 20260510062857 | 20 | 0 | 0.0 | 0.0 | 0.00 | 1.30 | 0.00 | 96 | 1010.8 |
| 20260510061957 | 20 | 0 | 0.0 | 0.0 | 0.00 | 1.30 | 0.00 | 96 | 1010.8 |
| 20260510061057 | 20 | 0 | 0.0 | 0.0 | 0.00 | 1.30 | 0.00 | 96 | 1010.8 |
| 20260510060157 | 20 | 0 | 0.0 | 0.0 | 0.00 | 1.30 | 0.00 | 95 | 1010.8 |
| 20260510055257 | 20 | 0 | 0.0 | 0.0 | 0.00 | 1.30 | 0.00 | 96 | 1010.7 |
| 20260510054357 | 20 | 0 | 0.0 | 0.0 | 0.00 | 1.30 | 0.00 | 95 | 1010.7 |
| 20260510053457 | 20 | 0 | 0.0 | 0.0 | 0.00 | 1.30 | 0.00 | 95 | 1010.8 |
| 20260510052557 | 20 | 0 | 0.0 | 0.0 | 0.00 | 1.30 | 0.00 | 95 | 1010.8 |
| 20260510050757 | 20 | 0 | 0.0 | 0.0 | 0.00 | 1.30 | 0.00 | 95 | 1010.8 |
| 20260510045857 | 20 | 269 | 0.0 | 1.6 | 0.00 | 1.30 | 1.30 | 95 | 1010.7 |
| 20260510044057 | 20 | 269 | 0.0 | 1.6 | 0.00 | 1.30 | 1.30 | 95 | 1010.6 |
| 20260510043157 | 21 | 0 | 0.0 | 0.0 | 0.00 | 1.30 | 1.30 | 95 | 1010.6 |
| 20260510042257 | 21 | 0 | 0.0 | 0.0 | 0.00 | 1.30 | 1.30 | 95 | 1010.4 |
| 20260510041357 | 21 | 0 | 0.0 | 0.0 | 0.00 | 1.30 | 1.30 | 95 | 1010.3 |
| 20260510040457 | 21 | 0 | 0.0 | 0.0 | 0.00 | 1.30 | 1.30 | 95 | 1010.2 |
| 20260510035557 | 21 | 0 | 0.0 | 0.0 | 0.00 | 1.30 | 1.30 | 95 | 1010.1 |
| 20260510034657 | 21 | 0 | 0.0 | 0.0 | 0.00 | 1.30 | 1.30 | 95 | 1010.1 |
| 20260510033757 | 21 | 0 | 0.0 | 0.0 | 0.00 | 1.30 | 1.30 | 95 | 1010.1 |
| 20260510032857 | 21 | 0 | 0.0 | 0.0 | 0.00 | 1.30 | 1.30 | 95 | 1010.0 |
| 20260510031957 | 21 | 0 | 0.0 | 0.0 | 0.00 | 1.30 | 1.30 | 95 | 1009.9 |
| 20260510031057 | 21 | 0 | 0.0 | 0.0 | 0.00 | 1.30 | 1.30 | 95 | 1009.8 |
| 20260510030157 | 21 | 0 | 0.0 | 0.0 | 0.00 | 1.30 | 1.30 | 94 | 1009.7 |
| 20260510024357 | 22 | 0 | 0.0 | 0.0 | 0.00 | 1.30 | 1.30 | 94 | 1009.5 |
| 20260510022557 | 22 | 269 | 0.0 | 1.6 | 0.00 | 1.30 | 1.30 | 94 | 1009.4 |
| 20260510021657 | 22 | 269 | 0.0 | 1.6 | 0.00 | 1.30 | 1.30 | 94 | 1009.2 |
| 20260510020757 | 22 | 269 | 0.0 | 1.6 | 0.00 | 1.30 | 1.30 | 94 | 1009.1 |
| 20260510015857 | 23 | 269 | 0.0 | 1.6 | 0.00 | 1.30 | 1.30 | 93 | 1009.1 |
| 20260510014957 | 23 | 0 | 0.0 | 0.0 | 0.00 | 1.30 | 1.30 | 93 | 1008.9 |
| 20260510012257 | 24 | 0 | 0.0 | 0.0 | 0.00 | 1.30 | 1.30 | 92 | 1008.7 |
| 20260510011357 | 24 | 0 | 0.0 | 0.0 | 0.00 | 1.30 | 1.30 | 92 | 1008.6 |
| 20260510010457 | 25 | 0 | 0.0 | 0.0 | 0.00 | 1.30 | 1.30 | 91 | 1008.5 |
| 20260510005557 | 25 | 0 | 0.0 | 0.0 | 0.00 | 1.30 | 1.30 | 89 | 1008.4 |
| 20260510004657 | 26 | 0 | 0.0 | 0.0 | 0.00 | 1.30 | 1.30 | 88 | 1008.3 |
| 20260510003757 | 26 | 0 | 0.0 | 0.0 | 0.00 | 1.30 | 1.30 | 86 | 1008.3 |
| 20260510002857 | 27 | 0 | 0.0 | 0.0 | 0.00 | 1.30 | 1.30 | 83 | 1008.2 |
| 20260510001957 | 27 | 0 | 0.0 | 0.0 | 0.00 | 1.30 | 1.30 | 81 | 1008.1 |
| 20260510001057 | 27 | 0 | 0.0 | 0.0 | 0.00 | 1.30 | 1.30 | 83 | 1008.2 |
| 20260510000157 | 28 | 0 | 0.0 | 0.0 | 0.00 | 1.30 | 1.30 | 78 | 1008.1 |
| 20260509235257 | 27 | 0 | 0.0 | 0.0 | 0.00 | 1.30 | 1.30 | 83 | 1008.0 |
| 20260509234357 | 27 | 0 | 0.0 | 0.0 | 0.00 | 1.30 | 1.30 | 84 | 1007.9 |
| 20260509232557 | 25 | 269 | 0.0 | 1.6 | 0.00 | 1.30 | 1.30 | 91 | 1007.9 |
| 20260509231657 | 25 | 0 | 0.0 | 0.0 | 0.00 | 1.30 | 1.30 | 93 | 1007.9 |
| 20260509230757 | 24 | 269 | 0.0 | 1.6 | 0.03 | 1.30 | 1.30 | 93 | 1007.8 |
| 20260509225857 | 23 | 269 | 0.0 | 1.6 | 0.43 | 1.30 | 1.30 | 96 | 1007.8 |
| 20260509224957 | 23 | 270 | 0.0 | 1.6 | 1.24 | 1.30 | 1.30 | 94 | 1007.8 |
| 20260509224057 | 22 | 275 | 0.0 | 4.8 | 1.30 | 1.30 | 1.30 | 95 | 1007.8 |
| 20260509223157 | 21 | 191 | 1.6 | 4.8 | 1.30 | 1.30 | 1.30 | 93 | 1007.3 |
| 20260509222257 | 21 | 138 | 0.0 | 8.0 | 1.30 | 1.30 | 1.30 | 93 | 1007.4 |
| 20260509221357 | 21 | 120 | 3.2 | 8.0 | 1.30 | 1.30 | 1.30 | 92 | 1007.2 |
| 20260509220457 | 21 | 326 | 8.0 | 11.3 | 1.14 | 1.14 | 1.17 | 89 | 1007.8 |
| 20260509213757 | 31 | 170 | 1.6 | 9.7 | 0.00 | 0.00 | 0.00 | 57 | 1008.2 |
| 20260509212857 | 32 | 309 | 3.2 | 9.7 | 0.00 | 0.00 | 0.00 | 58 | 1007.7 |
| 20260509211957 | 32 | 284 | 3.2 | 9.7 | 0.00 | 0.00 | 0.00 | 58 | 1007.9 |
| 20260509210157 | 33 | 323 | 1.6 | 8.0 | 0.00 | 0.00 | 0.00 | 59 | 1008.0 |
| 20260509205257 | 32 | 295 | 1.6 | 6.4 | 0.00 | 0.00 | 0.00 | 62 | 1008.1 |
| 20260509204357 | 32 | 41 | 1.6 | 3.2 | 0.00 | 0.00 | 0.00 | 59 | 1008.3 |
| 20260509203457 | 32 | 30 | 0.0 | 4.8 | 0.00 | 0.00 | 0.00 | 59 | 1008.4 |
| 20260509202557 | 33 | 350 | 1.6 | 3.2 | 0.00 | 0.00 | 0.00 | 56 | 1008.6 |
| 20260509200757 | 32 | 66 | 1.6 | 3.2 | 0.00 | 0.00 | 0.00 | 60 | 1008.8 |
| 20260509195857 | 32 | 47 | 1.6 | 6.4 | 0.00 | 0.00 | 0.00 | 61 | 1008.9 |
| 20260509194957 | 32 | 122 | 1.6 | 6.4 | 0.00 | 0.00 | 0.00 | 62 | 1009.0 |
| 20260509194057 | 32 | 240 | 1.6 | 4.8 | 0.00 | 0.00 | 0.00 | 60 | 1009.0 |
| 20260509193157 | 32 | 5 | 1.6 | 6.4 | 0.00 | 0.00 | 0.00 | 63 | 1009.1 |
| 20260509192257 | 31 | 298 | 1.6 | 6.4 | 0.00 | 0.00 | 0.00 | 63 | 1009.3 |
| 20260509191357 | 31 | 223 | 1.6 | 4.8 | 0.00 | 0.00 | 0.00 | 67 | 1009.5 |
| 20260509190457 | 31 | 117 | 3.2 | 11.3 | 0.00 | 0.00 | 0.00 | 65 | 1009.7 |
| 20260509184657 | 31 | 329 | 0.0 | 6.4 | 0.00 | 0.00 | 0.00 | 66 | 1009.9 |
| 20260509182857 | 30 | 318 | 1.6 | 6.4 | 0.00 | 0.00 | 0.00 | 66 | 1010.0 |
| 20260509181957 | 30 | 333 | 1.6 | 8.0 | 0.00 | 0.00 | 0.00 | 67 | 1010.1 |
| 20260509181057 | 30 | 281 | 1.6 | 6.4 | 0.00 | 0.00 | 0.00 | 68 | 1010.2 |
| 20260509175257 | 30 | 353 | 1.6 | 6.4 | 0.00 | 0.00 | 0.00 | 68 | 1010.4 |
| 20260509174357 | 30 | 19 | 1.6 | 6.4 | 0.00 | 0.00 | 0.00 | 69 | 1010.5 |
| 20260509173457 | 30 | 62 | 1.6 | 6.4 | 0.00 | 0.00 | 0.00 | 71 | 1010.6 |
| 20260509172557 | 29 | 115 | 1.6 | 8.0 | 0.00 | 0.00 | 0.00 | 75 | 1010.9 |
| 20260509171657 | 29 | 64 | 1.6 | 8.0 | 0.00 | 0.00 | 0.00 | 74 | 1010.9 |
| 20260509170757 | 28 | 39 | 1.6 | 4.8 | 0.00 | 0.00 | 0.00 | 74 | 1010.9 |
| 20260509165857 | 28 | 263 | 1.6 | 6.4 | 0.00 | 0.00 | 0.00 | 77 | 1010.8 |
| 20260509164957 | 28 | 322 | 1.6 | 8.0 | 0.00 | 0.00 | 0.00 | 77 | 1010.9 |
| 20260509164057 | 27 | 315 | 1.6 | 6.4 | 0.00 | 0.00 | 0.00 | 81 | 1011.1 |
| 20260509163157 | 27 | 124 | 0.0 | 9.7 | 0.00 | 0.00 | 0.00 | 82 | 1011.0 |
| 20260509162257 | 26 | 125 | 1.6 | 6.4 | 0.00 | 0.00 | 0.00 | 84 | 1011.0 |
| 20260509161357 | 26 | 114 | 1.6 | 4.8 | 0.00 | 0.00 | 0.00 | 83 | 1011.1 |
| 20260509160457 | 26 | 141 | 0.0 | 4.8 | 0.00 | 0.00 | 0.00 | 83 | 1010.9 |
| 20260509153757 | 25 | 120 | 1.6 | 9.7 | 0.00 | 0.00 | 0.00 | 90 | 1010.8 |
| 20260509152857 | 25 | 337 | 1.6 | 9.7 | 0.00 | 0.00 | 0.00 | 89 | 1010.8 |
| 20260509151957 | 24 | 336 | 1.6 | 6.4 | 0.00 | 0.00 | 0.00 | 93 | 1010.7 |
| 20260509151057 | 24 | 9 | 0.0 | 3.2 | 0.00 | 0.00 | 0.00 | 94 | 1011.1 |
| 20260509150157 | 23 | 330 | 0.0 | 3.2 | 0.00 | 0.00 | 0.00 | 96 | 1011.1 |
| 20260509145257 | 23 | 280 | 0.0 | 1.6 | 0.00 | 0.00 | 0.00 | 96 | 1011.4 |
| 20260509144357 | 23 | 280 | 0.0 | 1.6 | 0.00 | 0.00 | 0.00 | 96 | 1011.5 |
| 20260509143457 | 23 | 280 | 0.0 | 1.6 | 0.00 | 0.00 | 0.00 | 96 | 1011.5 |
| 20260509142557 | 22 | 281 | 0.0 | 1.6 | 0.00 | 0.00 | 0.00 | 96 | 1011.4 |
| 20260509141657 | 22 | 249 | 0.0 | 3.2 | 0.00 | 0.00 | 0.00 | 96 | 1011.3 |
| 20260509140757 | 22 | 141 | 0.0 | 1.6 | 0.00 | 0.00 | 0.00 | 96 | 1010.8 |
| 20260509135857 | 22 | 142 | 0.0 | 1.6 | 0.00 | 0.00 | 0.00 | 96 | 1010.6 |
| 20260509134957 | 22 | 140 | 0.0 | 1.6 | 0.00 | 0.00 | 0.00 | 96 | 1010.6 |
| 20260509134057 | 22 | 141 | 0.0 | 1.6 | 0.00 | 0.00 | 0.00 | 96 | 1010.8 |
| 20260509133157 | 22 | 141 | 0.0 | 1.6 | 0.00 | 0.00 | 0.00 | 96 | 1010.8 |
| 20260509132257 | 22 | 159 | 0.0 | 3.2 | 0.00 | 0.00 | 0.00 | 96 | 1011.0 |
| 20260509131357 | 22 | 0 | 0.0 | 0.0 | 0.00 | 0.00 | 0.00 | 96 | 1010.8 |
| 20260509130457 | 22 | 205 | 0.0 | 1.6 | 0.00 | 0.00 | 0.00 | 96 | 1010.6 |
| 20260509125557 | 22 | 205 | 0.0 | 1.6 | 0.00 | 0.00 | 0.00 | 96 | 1010.5 |
| 20260509124657 | 22 | 156 | 0.0 | 1.6 | 0.00 | 0.00 | 0.00 | 96 | 1010.3 |
| 20260509122857 | 22 | 130 | 0.0 | 1.6 | 0.00 | 0.00 | 0.00 | 96 | 1010.4 |
| 20260509121957 | 22 | 131 | 0.0 | 1.6 | 0.00 | 0.00 | 0.00 | 96 | 1010.8 |
| 20260509120157 | 22 | 131 | 0.0 | 1.6 | 0.00 | 0.00 | 0.00 | 96 | 1010.8 |
| 20260509115257 | 22 | 138 | 0.0 | 3.2 | 0.00 | 0.00 | 0.00 | 96 | 1010.8 |
| 20260509113457 | 22 | 144 | 1.6 | 6.4 | 0.00 | 0.00 | 0.00 | 96 | 1010.9 |
| 20260509112557 | 22 | 145 | 1.6 | 8.0 | 0.00 | 0.00 | 0.00 | 96 | 1010.9 |
| 20260509111657 | 22 | 139 | 1.6 | 8.0 | 0.00 | 0.00 | 0.00 | 96 | 1010.6 |
| 20260509105857 | 22 | 126 | 0.0 | 3.2 | 0.00 | 0.00 | 0.00 | 96 | 1009.9 |
| 20260509104957 | 22 | 0 | 0.0 | 0.0 | 0.00 | 0.00 | 0.00 | 96 | 1009.9 |
| 20260509104057 | 22 | 336 | 0.0 | 1.6 | 0.00 | 0.00 | 0.00 | 96 | 1010.2 |
| 20260509103157 | 22 | 0 | 0.0 | 0.0 | 0.00 | 0.00 | 0.00 | 96 | 1010.4 |
| 20260509102257 | 22 | 336 | 0.0 | 1.6 | 0.00 | 0.00 | 0.00 | 96 | 1010.3 |
| 20260509101357 | 22 | 0 | 0.0 | 0.0 | 0.00 | 0.00 | 0.00 | 95 | 1010.5 |
| 20260509095557 | 22 | 336 | 0.0 | 1.6 | 0.00 | 0.00 | 0.00 | 95 | 1010.3 |
| 20260509094657 | 22 | 0 | 0.0 | 0.0 | 0.00 | 0.00 | 0.00 | 95 | 1010.3 |
| 20260509093757 | 22 | 0 | 0.0 | 0.0 | 0.00 | 0.00 | 0.00 | 95 | 1010.0 |
| 20260509092857 | 22 | 0 | 0.0 | 0.0 | 0.00 | 0.00 | 0.00 | 95 | 1010.0 |
| 20260509091957 | 22 | 336 | 0.0 | 1.6 | 0.00 | 0.00 | 0.00 | 95 | 1010.0 |
| 20260509091057 | 22 | 0 | 0.0 | 0.0 | 0.00 | 0.00 | 0.00 | 95 | 1009.9 |
| 20260509090157 | 22 | 336 | 0.0 | 1.6 | 0.00 | 0.00 | 0.00 | 95 | 1009.5 |
| 20260509085257 | 22 | 0 | 0.0 | 0.0 | 0.00 | 0.00 | 0.00 | 95 | 1009.4 |
| 20260509084357 | 22 | 0 | 0.0 | 0.0 | 0.00 | 0.00 | 0.00 | 95 | 1009.4 |